createdAt,value
2022-09-11T00:00:38.956Z,50.908127
2022-09-11T00:01:40.012Z,50.908150
2022-09-11T00:02:39.023Z,50.908146
2022-09-11T00:03:38.970Z,50.908131
2022-09-11T00:04:40.346Z,50.908134
2022-09-11T00:05:50.453Z,50.908131
2022-09-11T00:06:41.351Z,50.908150
2022-09-11T00:07:40.586Z,50.908115
2022-09-11T00:08:38.987Z,50.908104
2022-09-11T00:09:38.913Z,50.908154
2022-09-11T00:10:38.900Z,50.908142
2022-09-11T00:11:38.972Z,50.908112
2022-09-11T00:12:38.860Z,50.908157
2022-09-11T00:13:40.369Z,50.908123
2022-09-11T00:14:38.906Z,50.908134
2022-09-11T00:15:39.326Z,50.908165
2022-09-11T00:16:39.539Z,50.908108
2022-09-11T00:17:38.988Z,50.908119
2022-09-11T00:18:39.020Z,50.908134
2022-09-11T00:19:38.833Z,50.908115
2022-09-11T00:20:38.801Z,50.908146
2022-09-11T00:21:38.790Z,50.908112
2022-09-11T00:22:38.821Z,50.908115
2022-09-11T00:23:38.889Z,50.908104
2022-09-11T00:24:38.808Z,50.908043
2022-09-11T00:25:39.773Z,50.908150
2022-09-11T00:26:38.845Z,50.908157
2022-09-11T00:27:38.774Z,50.908199
2022-09-11T00:28:38.736Z,50.908218
2022-09-11T00:29:38.863Z,50.908192
2022-09-11T00:30:38.721Z,50.908203
2022-09-11T00:31:38.813Z,50.908154
2022-09-11T00:32:38.715Z,50.908195
2022-09-11T00:33:38.795Z,50.908169
2022-09-11T00:34:38.716Z,50.908283
2022-09-11T00:35:38.680Z,50.908344
2022-09-11T00:36:38.733Z,50.908264
2022-09-11T00:37:38.672Z,50.908203
2022-09-11T00:38:38.898Z,50.908199
2022-09-11T00:39:39.545Z,50.908157
2022-09-11T00:40:38.749Z,50.908195
2022-09-11T00:41:38.690Z,50.908199
2022-09-11T00:42:38.804Z,50.908051
2022-09-11T00:43:38.632Z,50.907978
2022-09-11T00:44:38.613Z,50.908127
2022-09-11T00:45:38.642Z,50.908199
2022-09-11T00:46:38.598Z,50.908134
2022-09-11T00:47:38.617Z,50.908195
2022-09-11T00:48:38.589Z,50.908127
2022-09-11T00:49:38.580Z,50.908169
2022-09-11T00:50:38.628Z,50.908131
2022-09-11T00:51:38.627Z,50.907887
2022-09-11T00:52:38.555Z,50.908012
2022-09-11T00:53:38.620Z,50.908089
2022-09-11T00:54:38.539Z,50.908138
2022-09-11T00:55:38.591Z,50.908188
2022-09-11T00:56:38.526Z,50.908096
2022-09-11T00:57:38.513Z,50.908131
2022-09-11T00:58:38.515Z,50.908104
2022-09-11T00:59:38.531Z,50.908035
2022-09-11T01:00:38.571Z,50.908031
2022-09-11T01:01:38.529Z,50.908028
2022-09-11T01:02:38.579Z,50.907875
2022-09-11T01:03:38.532Z,50.907787
2022-09-11T01:04:38.483Z,50.907799
2022-09-11T01:05:38.481Z,50.907909
2022-09-11T01:06:38.446Z,50.908047
2022-09-11T01:07:38.441Z,50.908108
2022-09-11T01:08:38.655Z,50.908123
2022-09-11T01:09:39.425Z,50.908058
2022-09-11T01:10:38.448Z,50.908096
2022-09-11T01:11:38.408Z,50.908142
2022-09-11T01:12:38.399Z,50.908226
2022-09-11T01:13:38.527Z,50.908245
2022-09-11T01:14:38.408Z,50.908195
2022-09-11T01:15:38.432Z,50.908131
2022-09-11T01:16:38.427Z,50.908081
2022-09-11T01:17:38.357Z,50.908134
2022-09-11T01:18:38.349Z,50.908123
2022-09-11T01:19:38.365Z,50.908165
2022-09-11T01:20:38.337Z,50.908131
2022-09-11T01:21:38.391Z,50.908146
2022-09-11T01:22:38.320Z,50.908180
2022-09-11T01:23:38.337Z,50.908131
2022-09-11T01:24:38.520Z,50.908066
2022-09-11T01:25:38.319Z,50.908073
2022-09-11T01:26:38.287Z,50.908073
2022-09-11T01:27:38.277Z,50.908134
2022-09-11T01:28:38.271Z,50.908123
2022-09-11T01:29:38.285Z,50.908142
2022-09-11T01:30:38.256Z,50.908180
2022-09-11T01:31:38.306Z,50.908218
2022-09-11T01:32:38.338Z,50.908119
2022-09-11T01:33:38.250Z,50.908134
2022-09-11T01:34:38.401Z,50.908138
2022-09-11T01:35:38.344Z,50.908070
2022-09-11T01:36:38.205Z,50.908138
2022-09-11T01:37:38.199Z,50.908131
2022-09-11T01:38:38.193Z,50.908112
2022-09-11T01:39:38.318Z,50.908138
2022-09-11T01:40:38.176Z,50.908169
2022-09-11T01:41:38.164Z,50.908165
2022-09-11T01:42:38.174Z,50.908176
2022-09-11T01:43:38.199Z,50.908176
2022-09-11T01:44:38.158Z,50.908138
2022-09-11T01:45:39.160Z,50.908131
2022-09-11T01:46:38.125Z,50.908173
2022-09-11T01:47:38.115Z,50.908154
2022-09-11T01:48:38.114Z,50.908119
2022-09-11T01:49:38.144Z,50.908123
2022-09-11T01:50:38.111Z,50.908150
2022-09-11T01:51:38.125Z,50.908161
2022-09-11T01:52:38.083Z,50.908134
2022-09-11T01:53:38.070Z,50.908154
2022-09-11T01:54:38.088Z,50.908138
2022-09-11T01:55:38.052Z,50.908100
2022-09-11T01:56:39.039Z,50.908188
2022-09-11T01:57:39.042Z,50.908184
2022-09-11T01:58:38.039Z,50.908100
2022-09-11T01:59:38.031Z,50.908131
2022-09-11T02:00:38.070Z,50.908119
2022-09-11T02:01:38.037Z,50.908218
2022-09-11T02:02:38.007Z,50.908138
2022-09-11T02:03:38.067Z,50.908092
2022-09-11T02:04:38.015Z,50.908134
2022-09-11T02:05:37.971Z,50.908108
2022-09-11T02:06:38.974Z,50.908119
2022-09-11T02:07:37.972Z,50.908115
2022-09-11T02:08:37.964Z,50.908142
2022-09-11T02:09:38.015Z,50.908112
2022-09-11T02:10:37.946Z,50.908077
2022-09-11T02:11:37.942Z,50.908131
2022-09-11T02:12:37.930Z,50.908134
2022-09-11T02:13:37.926Z,50.908173
2022-09-11T02:14:37.943Z,50.908199
2022-09-11T02:15:37.909Z,50.908157
2022-09-11T02:16:38.205Z,50.908146
2022-09-11T02:17:37.911Z,50.908096
2022-09-11T02:18:37.889Z,50.908154
2022-09-11T02:19:37.899Z,50.908134
2022-09-11T02:20:37.910Z,50.908154
2022-09-11T02:21:37.863Z,50.908169
2022-09-11T02:22:37.862Z,50.908142
2022-09-11T02:23:37.901Z,50.908134
2022-09-11T02:24:37.870Z,50.908146
2022-09-11T02:25:37.883Z,50.908047
2022-09-11T02:26:37.823Z,50.908115
2022-09-11T02:27:37.841Z,50.908115
2022-09-11T02:28:37.806Z,50.908123
2022-09-11T02:29:37.818Z,50.908119
2022-09-11T02:30:37.811Z,50.908146
2022-09-11T02:31:37.801Z,50.908096
2022-09-11T02:32:37.773Z,50.908119
2022-09-11T02:33:37.908Z,50.908115
2022-09-11T02:34:37.792Z,50.908157
2022-09-11T02:35:37.757Z,50.908138
2022-09-11T02:36:37.745Z,50.908138
2022-09-11T02:37:37.758Z,50.908134
2022-09-11T02:38:37.729Z,50.908131
2022-09-11T02:39:37.812Z,50.908180
2022-09-11T02:40:37.749Z,50.908165
2022-09-11T02:41:37.705Z,50.908146
2022-09-11T02:42:37.703Z,50.908146
2022-09-11T02:43:37.691Z,50.908154
2022-09-11T02:44:37.719Z,50.908138
2022-09-11T02:45:37.766Z,50.908142
2022-09-11T02:46:37.673Z,50.908161
2022-09-11T02:47:37.664Z,50.908157
2022-09-11T02:48:37.679Z,50.908047
2022-09-11T02:49:37.651Z,50.908024
2022-09-11T02:50:38.940Z,50.908092
2022-09-11T02:51:37.633Z,50.908066
2022-09-11T02:52:37.635Z,50.908104
2022-09-11T02:53:37.665Z,50.908100
2022-09-11T02:54:37.612Z,50.908131
2022-09-11T02:55:37.625Z,50.908146
2022-09-11T02:56:37.595Z,50.908154
2022-09-11T02:57:37.584Z,50.908127
2022-09-11T02:58:37.580Z,50.908096
2022-09-11T03:00:09.603Z,50.908127
2022-09-11T03:00:37.617Z,50.908131
2022-09-11T03:01:37.554Z,50.908142
2022-09-11T03:02:37.550Z,50.908073
2022-09-11T03:03:37.571Z,50.908176
2022-09-11T03:04:37.533Z,50.908138
2022-09-11T03:05:37.553Z,50.908146
2022-09-11T03:06:37.519Z,50.908131
2022-09-11T03:07:37.541Z,50.908154
2022-09-11T03:08:37.505Z,50.908180
2022-09-11T03:09:37.508Z,50.908176
2022-09-11T03:10:37.514Z,50.908169
2022-09-11T03:11:37.486Z,50.908123
2022-09-11T03:12:37.476Z,50.908119
2022-09-11T03:13:37.464Z,50.908169
2022-09-11T03:14:37.451Z,50.908134
2022-09-11T03:15:37.473Z,50.908112
2022-09-11T03:16:37.456Z,50.908150
2022-09-11T03:17:37.430Z,50.908104
2022-09-11T03:18:37.423Z,50.908100
2022-09-11T03:19:37.431Z,50.908100
2022-09-11T03:20:37.431Z,50.908222
2022-09-11T03:21:37.406Z,50.908169
2022-09-11T03:22:37.400Z,50.908077
2022-09-11T03:23:37.389Z,50.908131
2022-09-11T03:24:37.377Z,50.907982
2022-09-11T03:25:37.398Z,50.908112
2022-09-11T03:26:37.358Z,50.908302
2022-09-11T03:27:37.351Z,50.908398
2022-09-11T03:28:37.338Z,50.908363
2022-09-11T03:29:37.343Z,50.908363
2022-09-11T03:30:37.423Z,50.908363
2022-09-11T03:31:39.196Z,50.908363
2022-09-11T03:32:38.316Z,50.908363
2022-09-11T03:33:37.308Z,50.908363
2022-09-11T03:34:37.303Z,50.908363
2022-09-11T03:35:37.319Z,50.908218
2022-09-11T03:36:37.283Z,50.908360
2022-09-11T03:37:37.271Z,50.907928
2022-09-11T03:38:37.267Z,50.908279
2022-09-11T03:39:37.284Z,50.908379
2022-09-11T03:40:37.270Z,50.908287
2022-09-11T03:41:37.240Z,50.908249
2022-09-11T03:42:37.232Z,50.908226
2022-09-11T03:43:37.225Z,50.908173
2022-09-11T03:44:37.302Z,50.908184
2022-09-11T03:45:37.304Z,50.908134
2022-09-11T03:46:37.198Z,50.908192
2022-09-11T03:47:37.192Z,50.908260
2022-09-11T03:48:37.188Z,50.908051
2022-09-11T03:49:37.176Z,50.907963
2022-09-11T03:50:37.201Z,50.908123
2022-09-11T03:51:37.162Z,50.908150
2022-09-11T03:52:37.156Z,50.908161
2022-09-11T03:53:37.147Z,50.908169
2022-09-11T03:54:37.144Z,50.908184
2022-09-11T03:55:37.158Z,50.908157
2022-09-11T03:56:37.129Z,50.908195
2022-09-11T03:57:37.141Z,50.908203
2022-09-11T03:58:37.112Z,50.908257
2022-09-11T03:59:38.167Z,50.908188
2022-09-11T04:00:37.122Z,50.908184
2022-09-11T04:01:37.123Z,50.908100
2022-09-11T04:02:37.090Z,50.908138
2022-09-11T04:03:37.100Z,50.908096
2022-09-11T04:04:37.068Z,50.908127
2022-09-11T04:05:37.165Z,50.908211
2022-09-11T04:06:37.048Z,50.908230
2022-09-11T04:07:37.042Z,50.908138
2022-09-11T04:08:37.035Z,50.908173
2022-09-11T04:09:37.035Z,50.908161
2022-09-11T04:10:37.042Z,50.908154
2022-09-11T04:11:37.592Z,50.908154
2022-09-11T04:12:38.001Z,50.908161
2022-09-11T04:13:36.997Z,50.908146
2022-09-11T04:14:36.981Z,50.908211
2022-09-11T04:15:37.002Z,50.908222
2022-09-11T04:16:36.997Z,50.908211
2022-09-11T04:17:36.957Z,50.908150
2022-09-11T04:18:36.957Z,50.908428
2022-09-11T04:19:36.960Z,50.908329
2022-09-11T04:20:36.987Z,50.908028
2022-09-11T04:21:36.927Z,50.908012
2022-09-11T04:22:36.925Z,50.908176
2022-09-11T04:23:36.911Z,50.908211
2022-09-11T04:24:36.905Z,50.908222
2022-09-11T04:25:36.894Z,50.908142
2022-09-11T04:26:36.920Z,50.908165
2022-09-11T04:27:36.882Z,50.908108
2022-09-11T04:28:36.871Z,50.908119
2022-09-11T04:29:36.862Z,50.908237
2022-09-11T04:30:36.856Z,50.908180
2022-09-11T04:31:36.925Z,50.908237
2022-09-11T04:32:36.837Z,50.908234
2022-09-11T04:33:36.830Z,50.908195
2022-09-11T04:34:36.824Z,50.908138
2022-09-11T04:35:36.813Z,50.908161
2022-09-11T04:36:36.829Z,50.908184
2022-09-11T04:37:36.798Z,50.908138
2022-09-11T04:38:36.796Z,50.908195
2022-09-11T04:39:36.809Z,50.908230
2022-09-11T04:40:36.775Z,50.908157
2022-09-11T04:41:36.793Z,50.908184
2022-09-11T04:42:36.759Z,50.908264
2022-09-11T04:43:36.752Z,50.908058
2022-09-11T04:44:36.743Z,50.908173
2022-09-11T04:45:36.794Z,50.908104
2022-09-11T04:46:36.752Z,50.908169
2022-09-11T04:47:36.719Z,50.908127
2022-09-11T04:48:36.718Z,50.908165
2022-09-11T04:49:36.702Z,50.908119
2022-09-11T04:50:36.698Z,50.908096
2022-09-11T04:51:36.730Z,50.908142
2022-09-11T04:52:36.688Z,50.908146
2022-09-11T04:53:36.672Z,50.908108
2022-09-11T04:54:36.669Z,50.908077
2022-09-11T04:55:36.685Z,50.908112
2022-09-11T04:56:36.654Z,50.908127
2022-09-11T04:57:36.643Z,50.908119
2022-09-11T04:58:36.637Z,50.908077
2022-09-11T04:59:36.626Z,50.908070
2022-09-11T05:00:36.643Z,50.908062
2022-09-11T05:01:36.614Z,50.908058
2022-09-11T05:02:36.605Z,50.908035
2022-09-11T05:03:36.600Z,50.908131
2022-09-11T05:04:36.590Z,50.908047
2022-09-11T05:05:36.740Z,50.908112
2022-09-11T05:06:36.573Z,50.908119
2022-09-11T05:07:36.579Z,50.908112
2022-09-11T05:08:36.577Z,50.908131
2022-09-11T05:09:36.553Z,50.908119
2022-09-11T05:10:36.576Z,50.908062
2022-09-11T05:11:36.541Z,50.908150
2022-09-11T05:12:36.530Z,50.908131
2022-09-11T05:13:36.811Z,50.908161
2022-09-11T05:14:36.514Z,50.908054
2022-09-11T05:15:36.533Z,50.907955
2022-09-11T05:16:36.539Z,50.908020
2022-09-11T05:17:36.509Z,50.908035
2022-09-11T05:18:36.480Z,50.908115
2022-09-11T05:19:36.471Z,50.908165
2022-09-11T05:20:36.464Z,50.908138
2022-09-11T05:21:36.485Z,50.908039
2022-09-11T05:22:36.451Z,50.908146
2022-09-11T05:23:36.436Z,50.908180
2022-09-11T05:24:36.433Z,50.908020
2022-09-11T05:25:36.423Z,50.907990
2022-09-11T05:26:36.440Z,50.908001
2022-09-11T05:27:36.407Z,50.907948
2022-09-11T05:28:36.538Z,50.907890
2022-09-11T05:29:36.442Z,50.907852
2022-09-11T05:30:36.400Z,50.907887
2022-09-11T05:31:36.426Z,50.907814
2022-09-11T05:32:36.498Z,50.907944
2022-09-11T05:33:36.469Z,50.907806
2022-09-11T05:34:36.360Z,50.908024
2022-09-11T05:35:36.401Z,50.908108
2022-09-11T05:36:36.360Z,50.908192
2022-09-11T05:37:36.329Z,50.908165
2022-09-11T05:38:36.321Z,50.908138
2022-09-11T05:39:36.374Z,50.908119
2022-09-11T05:40:36.305Z,50.908112
2022-09-11T05:41:36.330Z,50.908020
2022-09-11T05:42:36.302Z,50.908131
2022-09-11T05:43:36.293Z,50.908031
2022-09-11T05:44:36.282Z,50.908176
2022-09-11T05:45:36.332Z,50.908146
2022-09-11T05:46:36.282Z,50.908081
2022-09-11T05:47:36.252Z,50.908073
2022-09-11T05:48:36.245Z,50.907944
2022-09-11T05:49:36.237Z,50.908070
2022-09-11T05:50:36.228Z,50.908161
2022-09-11T05:51:36.241Z,50.908077
2022-09-11T05:52:36.209Z,50.908031
2022-09-11T05:53:36.203Z,50.908051
2022-09-11T05:54:36.199Z,50.907970
2022-09-11T05:55:36.186Z,50.908100
2022-09-11T05:56:36.201Z,50.908138
2022-09-11T05:57:36.172Z,50.908108
2022-09-11T05:58:36.163Z,50.908180
2022-09-11T05:59:36.154Z,50.908127
2022-09-11T06:00:36.153Z,50.908096
2022-09-11T06:01:36.255Z,50.908005
2022-09-11T06:02:36.130Z,50.907997
2022-09-11T06:03:36.128Z,50.908035
2022-09-11T06:04:36.122Z,50.908089
2022-09-11T06:05:36.115Z,50.908173
2022-09-11T06:06:36.130Z,50.908131
2022-09-11T06:07:36.116Z,50.908092
2022-09-11T06:08:36.098Z,50.908127
2022-09-11T06:09:36.084Z,50.908077
2022-09-11T06:10:36.075Z,50.908043
2022-09-11T06:11:36.091Z,50.908188
2022-09-11T06:12:36.052Z,50.908287
2022-09-11T06:13:36.047Z,50.908314
2022-09-11T06:14:36.040Z,50.908112
2022-09-11T06:15:46.752Z,50.907948
2022-09-11T06:16:38.065Z,50.908138
2022-09-11T06:17:36.015Z,50.908195
2022-09-11T06:18:36.012Z,50.908134
2022-09-11T06:19:35.998Z,50.908165
2022-09-11T06:20:35.992Z,50.908184
2022-09-11T06:21:36.009Z,50.908146
2022-09-11T06:22:35.986Z,50.908134
2022-09-11T06:23:35.968Z,50.908134
2022-09-11T06:24:35.959Z,50.908127
2022-09-11T06:25:35.958Z,50.908119
2022-09-11T06:26:35.971Z,50.908092
2022-09-11T06:27:35.942Z,50.908127
2022-09-11T06:28:35.946Z,50.908131
2022-09-11T06:29:35.919Z,50.908127
2022-09-11T06:30:35.956Z,50.908119
2022-09-11T06:31:35.931Z,50.908108
2022-09-11T06:32:35.902Z,50.908112
2022-09-11T06:33:35.892Z,50.908089
2022-09-11T06:34:35.886Z,50.908127
2022-09-11T06:35:35.890Z,50.908134
2022-09-11T06:36:35.896Z,50.908058
2022-09-11T06:37:35.864Z,50.908096
2022-09-11T06:38:35.852Z,50.908138
2022-09-11T06:39:35.959Z,50.908100
2022-09-11T06:40:35.838Z,50.908100
2022-09-11T06:41:35.854Z,50.908085
2022-09-11T06:42:35.821Z,50.908104
2022-09-11T06:43:35.815Z,50.908016
2022-09-11T06:44:35.811Z,50.908115
2022-09-11T06:45:35.811Z,50.908142
2022-09-11T06:46:35.820Z,50.908138
2022-09-11T06:47:35.780Z,50.908104
2022-09-11T06:48:35.773Z,50.908131
2022-09-11T06:49:35.773Z,50.908043
2022-09-11T06:50:36.962Z,50.908104
2022-09-11T06:51:36.773Z,50.908092
2022-09-11T06:52:35.758Z,50.908058
2022-09-11T06:53:35.732Z,50.908131
2022-09-11T06:54:35.722Z,50.908104
2022-09-11T06:55:35.717Z,50.908024
2022-09-11T06:56:35.734Z,50.908062
2022-09-11T06:57:39.915Z,50.908108
2022-09-11T06:58:37.692Z,50.908070
2022-09-11T06:59:35.684Z,50.908104
2022-09-11T07:00:35.674Z,50.908154
2022-09-11T07:01:35.810Z,50.908089
2022-09-11T07:02:35.664Z,50.908119
2022-09-11T07:03:35.648Z,50.908115
2022-09-11T07:04:35.641Z,50.908108
2022-09-11T07:05:35.652Z,50.908138
2022-09-11T07:06:35.657Z,50.908157
2022-09-11T07:07:35.633Z,50.908138
2022-09-11T07:08:35.613Z,50.908150
2022-09-11T07:09:35.605Z,50.908085
2022-09-11T07:10:35.597Z,50.908100
2022-09-11T07:11:35.612Z,50.908043
2022-09-11T07:12:35.589Z,50.908081
2022-09-11T07:13:37.561Z,50.908112
2022-09-11T07:14:36.573Z,50.908108
2022-09-11T07:15:35.560Z,50.908085
2022-09-11T07:16:35.658Z,50.908081
2022-09-11T07:17:35.549Z,50.908012
2022-09-11T07:18:35.540Z,50.907970
2022-09-11T07:19:35.536Z,50.908028
2022-09-11T07:20:35.524Z,50.908035
2022-09-11T07:21:35.547Z,50.908051
2022-09-11T07:22:35.510Z,50.908089
2022-09-11T07:23:35.501Z,50.908058
2022-09-11T07:24:35.492Z,50.908066
2022-09-11T07:25:35.491Z,50.908089
2022-09-11T07:26:35.516Z,50.908054
2022-09-11T07:27:35.476Z,50.908070
2022-09-11T07:28:35.462Z,50.908073
2022-09-11T07:29:35.454Z,50.908077
2022-09-11T07:30:35.500Z,50.908127
2022-09-11T07:31:35.515Z,50.908165
2022-09-11T07:32:35.487Z,50.908154
2022-09-11T07:33:35.445Z,50.908115
2022-09-11T07:34:35.416Z,50.908066
2022-09-11T07:35:35.406Z,50.908047
2022-09-11T07:36:35.433Z,50.908039
2022-09-11T07:37:35.399Z,50.908096
2022-09-11T07:38:35.384Z,50.908073
2022-09-11T07:39:35.405Z,50.907978
2022-09-11T07:40:35.368Z,50.908001
2022-09-11T07:41:35.387Z,50.908028
2022-09-11T07:42:35.358Z,50.908043
2022-09-11T07:43:35.345Z,50.908081
2022-09-11T07:44:35.341Z,50.908089
2022-09-11T07:45:35.400Z,50.908081
2022-09-11T07:46:35.330Z,50.908100
2022-09-11T07:47:35.337Z,50.908096
2022-09-11T07:48:35.307Z,50.908051
2022-09-11T07:49:35.305Z,50.907982
2022-09-11T07:50:35.293Z,50.908031
2022-09-11T07:51:35.346Z,50.908024
2022-09-11T07:52:35.301Z,50.908123
2022-09-11T07:53:35.336Z,50.908096
2022-09-11T07:54:35.264Z,50.908024
2022-09-11T07:55:35.263Z,50.908058
2022-09-11T07:56:35.252Z,50.908096
2022-09-11T07:57:35.264Z,50.908176
2022-09-11T07:58:35.235Z,50.908081
2022-09-11T07:59:35.224Z,50.907997
2022-09-11T08:00:37.097Z,50.908047
2022-09-11T08:01:36.256Z,50.908073
2022-09-11T08:02:35.281Z,50.908096
2022-09-11T08:03:35.195Z,50.908112
2022-09-11T08:04:35.187Z,50.908119
2022-09-11T08:05:35.199Z,50.908123
2022-09-11T08:06:35.177Z,50.908104
2022-09-11T08:07:35.188Z,50.908100
2022-09-11T08:08:35.154Z,50.908199
2022-09-11T08:09:35.147Z,50.908157
2022-09-11T08:10:35.137Z,50.908157
2022-09-11T08:11:35.149Z,50.908123
2022-09-11T08:12:35.153Z,50.908085
2022-09-11T08:13:35.117Z,50.908112
2022-09-11T08:14:35.133Z,50.908123
2022-09-11T08:15:35.100Z,50.908092
2022-09-11T08:16:35.150Z,50.908237
2022-09-11T08:17:35.108Z,50.908157
2022-09-11T08:18:35.078Z,50.908062
2022-09-11T08:19:35.069Z,50.908104
2022-09-11T08:20:35.053Z,50.908108
2022-09-11T08:21:36.123Z,50.908066
2022-09-11T08:22:35.074Z,50.908119
2022-09-11T08:23:35.035Z,50.908123
2022-09-11T08:24:35.032Z,50.908134
2022-09-11T08:25:35.023Z,50.908115
2022-09-11T08:26:35.011Z,50.908119
2022-09-11T08:27:35.028Z,50.908157
2022-09-11T08:28:34.998Z,50.908096
2022-09-11T08:29:35.027Z,50.908108
2022-09-11T08:30:35.003Z,50.908119
2022-09-11T08:31:35.109Z,50.908104
2022-09-11T08:32:35.089Z,50.908085
2022-09-11T08:33:34.964Z,50.908108
2022-09-11T08:34:34.960Z,50.908092
2022-09-11T08:35:34.955Z,50.908100
2022-09-11T08:36:34.941Z,50.908127
2022-09-11T08:37:34.978Z,50.908104
2022-09-11T08:38:34.934Z,50.908085
2022-09-11T08:39:35.074Z,50.908157
2022-09-11T08:40:34.920Z,50.908142
2022-09-11T08:41:34.914Z,50.908119
2022-09-11T08:42:34.923Z,50.908070
2022-09-11T08:43:34.893Z,50.908089
2022-09-11T08:44:38.535Z,50.908077
2022-09-11T08:45:35.935Z,50.908058
2022-09-11T08:46:34.881Z,50.908043
2022-09-11T08:47:34.917Z,50.908035
2022-09-11T08:48:34.893Z,50.908081
2022-09-11T08:49:34.873Z,50.908081
2022-09-11T08:50:34.835Z,50.908043
2022-09-11T08:51:34.826Z,50.908043
2022-09-11T08:52:34.850Z,50.908108
2022-09-11T08:53:34.847Z,50.908020
2022-09-11T08:54:34.802Z,50.907871
2022-09-11T08:55:34.798Z,50.907978
2022-09-11T08:56:34.790Z,50.908047
2022-09-11T08:57:34.823Z,50.908089
2022-09-11T08:58:34.777Z,50.908009
2022-09-11T08:59:34.764Z,50.908047
2022-09-11T09:00:34.805Z,50.908054
2022-09-11T09:01:34.831Z,50.908096
2022-09-11T09:02:34.772Z,50.908127
2022-09-11T09:03:34.738Z,50.908195
2022-09-11T09:04:34.729Z,50.908051
2022-09-11T09:05:34.751Z,50.908009
2022-09-11T09:06:34.714Z,50.908031
2022-09-11T09:07:34.739Z,50.908096
2022-09-11T09:08:34.708Z,50.908100
2022-09-11T09:09:35.323Z,50.908112
2022-09-11T09:10:35.690Z,50.908195
2022-09-11T09:11:34.700Z,50.908222
2022-09-11T09:12:34.700Z,50.908432
2022-09-11T09:13:34.656Z,50.908401
2022-09-11T09:14:34.680Z,50.908199
2022-09-11T09:15:34.640Z,50.908066
2022-09-11T09:16:34.677Z,50.908253
2022-09-11T09:17:34.759Z,50.908260
2022-09-11T09:18:34.615Z,50.908218
2022-09-11T09:19:34.616Z,50.908142
2022-09-11T09:20:34.644Z,50.908138
2022-09-11T09:21:34.774Z,50.908150
2022-09-11T09:22:34.616Z,50.908195
2022-09-11T09:23:34.583Z,50.908226
2022-09-11T09:24:34.616Z,50.908287
2022-09-11T09:25:34.644Z,50.908077
2022-09-11T09:26:38.374Z,50.908104
2022-09-11T09:27:35.572Z,50.908138
2022-09-11T09:28:34.548Z,50.908150
2022-09-11T09:29:34.537Z,50.908150
2022-09-11T09:30:34.531Z,50.908085
2022-09-11T09:31:34.527Z,50.908066
2022-09-11T09:32:34.541Z,50.908031
2022-09-11T09:33:34.521Z,50.908180
2022-09-11T09:34:34.501Z,50.908314
2022-09-11T09:35:34.489Z,50.908215
2022-09-11T09:36:34.485Z,50.908195
2022-09-11T09:37:34.476Z,50.908146
2022-09-11T09:38:34.513Z,50.908157
2022-09-11T09:39:34.459Z,50.908184
2022-09-11T09:40:34.451Z,50.908085
2022-09-11T09:41:34.451Z,50.908054
2022-09-11T09:42:34.463Z,50.908058
2022-09-11T09:43:34.494Z,50.908051
2022-09-11T09:44:34.454Z,50.908070
2022-09-11T09:45:34.470Z,50.908089
2022-09-11T09:46:34.407Z,50.908123
2022-09-11T09:47:34.394Z,50.908173
2022-09-11T09:48:34.423Z,50.908211
2022-09-11T09:49:34.382Z,50.908131
2022-09-11T09:50:34.375Z,50.908077
2022-09-11T09:51:34.365Z,50.907990
2022-09-11T09:52:34.387Z,50.907940
2022-09-11T09:53:34.350Z,50.908096
2022-09-11T09:54:34.345Z,50.908226
2022-09-11T09:55:34.340Z,50.908192
2022-09-11T09:56:34.355Z,50.908115
2022-09-11T09:57:34.325Z,50.908085
2022-09-11T09:58:34.485Z,50.908108
2022-09-11T09:59:34.309Z,50.908089
2022-09-11T10:00:34.296Z,50.908016
2022-09-11T10:01:34.314Z,50.908054
2022-09-11T10:02:34.317Z,50.908131
2022-09-11T10:03:34.306Z,50.908146
2022-09-11T10:04:34.271Z,50.908127
2022-09-11T10:05:34.262Z,50.908104
2022-09-11T10:06:34.260Z,50.908100
2022-09-11T10:07:34.260Z,50.908176
2022-09-11T10:08:34.301Z,50.908241
2022-09-11T10:09:34.237Z,50.908150
2022-09-11T10:10:34.212Z,50.908207
2022-09-11T10:11:35.210Z,50.908150
2022-09-11T10:12:34.205Z,50.908096
2022-09-11T10:13:34.232Z,50.908165
2022-09-11T10:14:51.166Z,50.908199
2022-09-11T10:15:36.220Z,50.908195
2022-09-11T10:16:34.176Z,50.908215
2022-09-11T10:17:34.171Z,50.908249
2022-09-11T10:18:34.301Z,50.908218
2022-09-11T10:19:34.192Z,50.908321
2022-09-11T10:20:34.235Z,50.908337
2022-09-11T10:21:34.152Z,50.908199
2022-09-11T10:22:34.130Z,50.908230
2022-09-11T10:23:34.145Z,50.908108
2022-09-11T10:24:34.112Z,50.907867
2022-09-11T10:25:34.118Z,50.907841
2022-09-11T10:26:34.112Z,50.908070
2022-09-11T10:27:34.170Z,50.907963
2022-09-11T10:28:34.231Z,50.908028
2022-09-11T10:29:34.130Z,50.908119
2022-09-11T10:30:34.092Z,50.908173
2022-09-11T10:31:34.150Z,50.908108
2022-09-11T10:32:34.055Z,50.908054
2022-09-11T10:33:34.181Z,50.908047
2022-09-11T10:34:34.037Z,50.908043
2022-09-11T10:35:34.033Z,50.908047
2022-09-11T10:36:34.075Z,50.907875
2022-09-11T10:37:34.013Z,50.908035
2022-09-11T10:38:36.949Z,50.908115
2022-09-11T10:39:35.176Z,50.908142
2022-09-11T10:40:34.075Z,50.908062
2022-09-11T10:41:34.053Z,50.908096
2022-09-11T10:42:33.986Z,50.908070
2022-09-11T10:43:34.004Z,50.908043
2022-09-11T10:44:34.345Z,50.908081
2022-09-11T10:45:34.021Z,50.908096
2022-09-11T10:46:41.134Z,50.908100
2022-09-11T10:47:33.940Z,50.908058
2022-09-11T10:48:33.969Z,50.908092
2022-09-11T10:49:33.977Z,50.908089
2022-09-11T10:50:33.990Z,50.908051
2022-09-11T10:51:33.928Z,50.908077
2022-09-11T10:52:33.917Z,50.908096
2022-09-11T10:53:33.907Z,50.908108
2022-09-11T10:54:33.929Z,50.908092
2022-09-11T10:55:33.882Z,50.908104
2022-09-11T10:56:33.916Z,50.908119
2022-09-11T10:57:33.909Z,50.908108
2022-09-11T10:58:33.972Z,50.908096
2022-09-11T10:59:33.881Z,50.908085
2022-09-11T11:00:33.836Z,50.908092
2022-09-11T11:01:33.875Z,50.908157
2022-09-11T11:02:33.831Z,50.908146
2022-09-11T11:03:33.913Z,50.908051
2022-09-11T11:04:33.827Z,50.908100
2022-09-11T11:05:33.839Z,50.908123
2022-09-11T11:06:33.813Z,50.908123
2022-09-11T11:07:33.779Z,50.908127
2022-09-11T11:08:33.916Z,50.908184
2022-09-11T11:09:33.839Z,50.908150
2022-09-11T11:10:33.777Z,50.908154
2022-09-11T11:11:33.800Z,50.908180
2022-09-11T11:12:33.746Z,50.908131
2022-09-11T11:13:33.764Z,50.908115
2022-09-11T11:14:34.467Z,50.908176
2022-09-11T11:15:33.770Z,50.908169
2022-09-11T11:16:33.726Z,50.908070
2022-09-11T11:17:33.780Z,50.908073
2022-09-11T11:18:34.852Z,50.908173
2022-09-11T11:19:33.790Z,50.908100
2022-09-11T11:20:33.687Z,50.908062
2022-09-11T11:21:33.681Z,50.908104
2022-09-11T11:22:33.802Z,50.908112
2022-09-11T11:23:33.779Z,50.908123
2022-09-11T11:24:33.690Z,50.908085